Time;durP1;ratioP1;P1;durP2;ratioP2;P2;SDS_P1;SDS_P2;PMS_P1;PMS_P2;Temp;Humidity;BMP_temperature;BMP_pressure;BME280_temperature;BME280_humidity;BME280_pressure;Samples;Min_cycle;Max_cycle;Signal;HPM_P1;HPM_P2
2022/10/13 00:01:45;;;;;;;28.52;17.98;;;10.60;88.50;;;;;;5038364;28;20044;-73
2022/10/13 00:04:10;;;;;;;30.10;19.67;;;10.70;88.90;;;;;;5054785;28;20067;-75
2022/10/13 00:06:36;;;;;;;31.13;17.05;;;10.70;89.10;;;;;;5054338;28;20040;-75
2022/10/13 00:09:02;;;;;;;26.90;17.58;;;10.70;88.80;;;;;;5054569;28;20117;-73
2022/10/13 00:11:29;;;;;;;29.63;19.20;;;10.70;88.50;;;;;;5054740;28;20499;-74
2022/10/13 00:13:58;;;;;;;26.83;18.23;;;10.70;88.10;;;;;;5054305;28;20045;-74
2022/10/13 00:16:24;;;;;;;28.55;18.48;;;10.70;88.20;;;;;;5054308;28;20036;-74
2022/10/13 00:18:50;;;;;;;26.98;18.58;;;10.70;88.80;;;;;;5054025;28;20053;-74
2022/10/13 00:21:19;;;;;;;27.30;16.88;;;10.70;88.70;;;;;;5054336;28;20051;-74
2022/10/13 00:23:46;;;;;;;31.38;17.80;;;10.80;88.50;;;;;;5053993;28;20052;-74
2022/10/13 00:26:13;;;;;;;27.35;17.15;;;10.80;88.60;;;;;;5054016;28;20091;-74
2022/10/13 00:28:39;;;;;;;25.30;18.67;;;10.80;88.30;;;;;;5053811;28;20052;-75
2022/10/13 00:31:27;;;;;;;30.02;18.17;;;10.80;88.30;;;;;;5037342;28;20037;-74
2022/10/13 00:33:53;;;;;;;30.13;18.52;;;10.80;88.20;;;;;;5053590;28;20041;-73
2022/10/13 00:36:20;;;;;;;25.77;15.35;;;10.80;88.60;;;;;;5053959;28;20040;-73
2022/10/13 00:38:46;;;;;;;30.02;20.63;;;10.80;88.60;;;;;;5037160;28;20080;-73
2022/10/13 00:41:18;;;;;;;29.77;20.05;;;10.80;88.20;;;;;;5020550;28;20072;-73
2022/10/13 00:43:49;;;;;;;29.08;19.27;;;10.80;88.00;;;;;;5037072;28;20056;-73
2022/10/13 00:46:15;;;;;;;29.85;19.30;;;10.80;88.40;;;;;;5053685;28;20049;-73
2022/10/13 00:48:43;;;;;;;32.10;19.35;;;10.80;88.60;;;;;;5036444;28;20064;-74
2022/10/13 00:51:11;;;;;;;33.08;20.88;;;10.80;88.30;;;;;;5036967;28;20155;-72
2022/10/13 00:53:38;;;;;;;29.95;19.65;;;10.80;88.40;;;;;;5053345;28;20037;-75
2022/10/13 00:56:08;;;;;;;30.45;19.42;;;10.80;89.10;;;;;;5053535;28;20036;-73
2022/10/13 00:58:36;;;;;;;31.48;19.67;;;10.80;88.90;;;;;;5053167;28;20041;-73
2022/10/13 01:01:03;;;;;;;29.52;19.92;;;10.70;89.30;;;;;;5053249;28;20409;-75
2022/10/13 01:03:30;;;;;;;31.30;20.95;;;10.70;89.40;;;;;;5053551;28;20080;-75
2022/10/13 01:05:59;;;;;;;30.00;20.05;;;10.70;89.40;;;;;;5053408;28;20041;-73
2022/10/13 01:08:26;;;;;;;26.90;17.92;;;10.70;89.20;;;;;;5036507;28;20147;-75
2022/10/13 01:10:58;;;;;;;29.15;18.48;;;10.70;89.20;;;;;;5053319;28;20037;-75
2022/10/13 01:14:00;;;;;;;31.30;20.83;;;10.70;89.30;;;;;;5053438;28;20041;-73
2022/10/13 01:16:48;;;;;;;27.52;19.88;;;10.60;89.40;;;;;;5053548;28;20450;-74
2022/10/13 01:19:50;;;;;;;32.10;18.48;;;10.60;89.50;;;;;;5053069;28;20045;-73
2022/10/13 01:22:59;;;;;;;30.75;19.20;;;10.70;89.40;;;;;;5036496;28;20041;-74
2022/10/13 01:25:56;;;;;;;26.42;19.17;;;10.70;89.30;;;;;;4996032;28;20066;-73
2022/10/13 01:28:37;;;;;;;31.05;18.67;;;10.70;89.10;;;;;;5036163;28;20048;-74
2022/10/13 01:31:16;;;;;;;27.80;18.35;;;10.70;89.50;;;;;;5052914;28;20139;-74
2022/10/13 01:34:08;;;;;;;29.25;18.85;;;10.70;89.50;;;;;;5053198;28;20080;-72
2022/10/13 01:37:01;;;;;;;28.35;18.42;;;10.60;89.30;;;;;;5052896;28;20087;-73
2022/10/13 01:39:52;;;;;;;28.35;18.73;;;10.70;89.20;;;;;;5052685;28;20055;-73
2022/10/13 01:42:23;;;;;;;29.92;19.17;;;10.70;89.30;;;;;;5052532;28;20068;-75
2022/10/13 01:44:53;;;;;;;28.77;19.25;;;10.70;89.30;;;;;;5036299;28;20392;-75
2022/10/13 01:47:20;;;;;;;29.05;18.00;;;10.60;89.30;;;;;;5035802;28;20049;-76
2022/10/13 01:49:49;;;;;;;30.95;18.38;;;10.60;89.90;;;;;;5052482;28;20049;-74
2022/10/13 01:52:17;;;;;;;31.67;19.73;;;10.60;89.80;;;;;;5052619;28;20080;-74
2022/10/13 01:54:48;;;;;;;21.80;15.73;;;10.60;89.90;;;;;;5052311;28;20033;-73
2022/10/13 01:57:32;;;;;;;24.88;15.23;;;10.60;89.50;;;;;;5052604;28;20094;-73
2022/10/13 02:00:14;;;;;;;29.27;18.23;;;10.60;89.50;;;;;;5052454;28;20047;-73
2022/10/13 02:03:04;;;;;;;28.67;18.30;;;10.60;89.40;;;;;;5052552;28;20084;-76
2022/10/13 02:05:48;;;;;;;23.38;14.82;;;10.60;89.60;;;;;;5036101;28;20111;-74
2022/10/13 02:08:26;;;;;;;25.30;16.73;;;10.60;89.30;;;;;;5052436;28;20123;-75
2022/10/13 02:11:09;;;;;;;29.23;18.98;;;10.60;89.40;;;;;;5052341;28;20090;-73
2022/10/13 02:13:38;;;;;;;26.98;16.60;;;10.60;89.50;;;;;;5052912;28;20041;-72
2022/10/13 02:16:04;;;;;;;23.67;17.20;;;10.60;89.40;;;;;;5052540;28;20397;-72
2022/10/13 02:18:35;;;;;;;24.67;17.23;;;10.60;89.50;;;;;;5035730;28;20131;-73
2022/10/13 02:21:02;;;;;;;28.27;18.15;;;10.70;89.40;;;;;;5052053;28;20055;-74
2022/10/13 02:23:29;;;;;;;27.83;17.50;;;10.70;89.10;;;;;;5052111;28;20095;-72
2022/10/13 02:25:58;;;;;;;24.88;16.35;;;10.70;89.00;;;;;;5052250;28;20045;-73
2022/10/13 02:28:23;;;;;;;31.55;17.98;;;10.70;89.30;;;;;;5051742;28;20128;-72
2022/10/13 02:30:50;;;;;;;31.40;18.70;;;10.70;89.60;;;;;;5051982;28;20123;-72
2022/10/13 02:33:15;;;;;;;26.15;16.55;;;10.70;89.60;;;;;;5051892;28;20123;-75
2022/10/13 02:35:42;;;;;;;28.48;18.23;;;10.70;89.60;;;;;;5052018;28;20095;-73
2022/10/13 02:38:08;;;;;;;28.02;17.75;;;10.70;89.60;;;;;;5035214;28;20044;-74
2022/10/13 02:40:33;;;;;;;23.40;14.50;;;10.70;89.50;;;;;;5052091;28;20050;-73
2022/10/13 02:42:59;;;;;;;25.45;17.58;;;10.70;89.60;;;;;;5035247;28;20052;-72
2022/10/13 02:45:25;;;;;;;33.28;18.75;;;10.70;89.40;;;;;;5034911;28;20037;-74
2022/10/13 02:47:51;;;;;;;25.10;17.70;;;10.70;89.70;;;;;;5034768;28;20081;-73
2022/10/13 02:50:17;;;;;;;22.55;16.52;;;10.70;89.80;;;;;;5051549;28;20056;-72
2022/10/13 02:52:42;;;;;;;30.55;18.85;;;10.70;90.60;;;;;;5051789;28;20037;-76
2022/10/13 02:55:08;;;;;;;32.53;20.05;;;10.70;90.70;;;;;;5034973;28;20120;-72
2022/10/13 02:57:37;;;;;;;23.77;16.40;;;10.70;91.10;;;;;;5051488;28;20082;-74
2022/10/13 03:00:04;;;;;;;24.98;17.35;;;10.70;91.20;;;;;;5051726;28;20041;-74
2022/10/13 03:02:30;;;;;;;22.48;16.52;;;10.70;90.80;;;;;;5035024;28;20091;-74
2022/10/13 03:04:55;;;;;;;27.42;18.27;;;10.70;90.70;;;;;;5051776;28;20077;-75
2022/10/13 03:07:21;;;;;;;29.55;19.75;;;10.80;90.40;;;;;;5039267;28;20041;-73
2022/10/13 03:09:47;;;;;;;24.35;17.38;;;10.80;90.40;;;;;;5055288;28;20102;-73
2022/10/13 03:12:13;;;;;;;32.25;19.70;;;10.80;90.90;;;;;;5038987;28;20048;-75
2022/10/13 03:14:38;;;;;;;29.60;19.13;;;10.80;90.90;;;;;;5038977;28;20629;-76
2022/10/13 03:17:04;;;;;;;30.83;21.63;;;10.80;91.00;;;;;;5055439;28;20052;-75
2022/10/13 03:19:30;;;;;;;30.70;19.80;;;10.80;90.80;;;;;;5038940;28;20048;-74
2022/10/13 03:21:56;;;;;;;26.58;18.98;;;10.80;90.90;;;;;;5055606;28;20481;-72
2022/10/13 03:24:22;;;;;;;33.17;21.67;;;10.80;90.70;;;;;;5038900;28;20051;-73
2022/10/13 03:26:48;;;;;;;29.67;19.50;;;10.80;91.00;;;;;;5055234;28;20485;-73
2022/10/13 03:29:15;;;;;;;33.17;21.17;;;10.80;90.70;;;;;;5055033;28;20077;-76
2022/10/13 03:31:41;;;;;;;25.85;16.90;;;10.80;90.40;;;;;;5055280;28;20087;-72
2022/10/13 03:34:09;;;;;;;32.85;18.38;;;10.80;90.40;;;;;;5055219;28;20079;-74
2022/10/13 03:36:35;;;;;;;30.85;22.20;;;10.80;90.80;;;;;;5055052;28;20045;-74
2022/10/13 03:39:01;;;;;;;25.70;16.70;;;10.80;90.90;;;;;;5054930;28;20048;-73
2022/10/13 03:41:26;;;;;;;32.33;21.70;;;10.80;90.90;;;;;;5055047;28;20489;-72
2022/10/13 03:43:53;;;;;;;29.58;20.27;;;10.80;91.10;;;;;;5054966;28;20080;-74
2022/10/13 03:46:19;;;;;;;22.00;17.02;;;10.90;91.10;;;;;;5054944;28;20045;-73
2022/10/13 03:48:46;;;;;;;33.92;22.13;;;10.90;90.80;;;;;;5054544;28;20049;-71
2022/10/13 03:51:17;;;;;;;36.33;22.50;;;10.90;91.30;;;;;;5038285;28;20174;-74
2022/10/13 03:53:43;;;;;;;29.50;20.55;;;10.90;91.00;;;;;;5054699;28;20037;-74
2022/10/13 03:56:13;;;;;;;38.65;23.75;;;10.90;91.10;;;;;;5054462;28;20075;-73
2022/10/13 03:58:39;;;;;;;37.08;22.88;;;10.90;91.30;;;;;;5054328;28;20033;-73
2022/10/13 04:01:05;;;;;;;32.63;21.85;;;10.90;91.00;;;;;;5054783;28;20041;-75
2022/10/13 04:03:32;;;;;;;30.33;21.83;;;10.90;91.30;;;;;;5054497;28;20095;-73
2022/10/13 04:06:02;;;;;;;32.67;21.10;;;10.80;92.40;;;;;;5054553;28;20040;-74
2022/10/13 04:08:29;;;;;;;27.30;18.85;;;10.80;92.00;;;;;;5054389;28;20037;-73
2022/10/13 04:11:05;;;;;;;28.85;18.90;;;10.80;91.70;;;;;;5054645;28;20394;-74
2022/10/13 04:13:31;;;;;;;32.85;22.90;;;10.80;91.90;;;;;;5054193;28;20040;-75
2022/10/13 04:16:05;;;;;;;31.08;21.23;;;10.80;92.40;;;;;;5054455;28;20390;-72
2022/10/13 04:18:31;;;;;;;38.03;23.65;;;10.80;92.70;;;;;;5054339;28;20033;-73
2022/10/13 04:20:57;;;;;;;34.17;23.67;;;10.80;92.80;;;;;;5054482;28;20440;-74
2022/10/13 04:23:23;;;;;;;32.67;21.58;;;10.80;92.50;;;;;;5054259;28;20123;-76
2022/10/13 04:25:49;;;;;;;32.58;22.48;;;10.70;92.60;;;;;;5054177;28;20086;-75
2022/10/13 04:28:15;;;;;;;37.47;24.38;;;10.80;92.00;;;;;;5054206;28;20041;-74
2022/10/13 04:30:41;;;;;;;41.38;25.63;;;10.80;92.50;;;;;;5037447;28;20619;-72
2022/10/13 04:33:07;;;;;;;31.17;21.38;;;10.80;93.00;;;;;;5054059;28;20116;-73
2022/10/13 04:35:33;;;;;;;29.90;20.55;;;10.80;92.60;;;;;;5053962;28;20068;-74
2022/10/13 04:37:58;;;;;;;37.15;25.65;;;10.80;92.60;;;;;;5054170;28;20049;-74
2022/10/13 04:40:25;;;;;;;36.20;25.67;;;10.70;92.30;;;;;;5037284;28;20052;-72
2022/10/13 04:42:51;;;;;;;40.97;27.23;;;10.70;92.60;;;;;;5053863;28;20072;-75
2022/10/13 04:45:17;;;;;;;36.03;26.88;;;10.80;93.60;;;;;;5054142;28;20130;-74
2022/10/13 04:47:42;;;;;;;43.08;30.17;;;10.70;93.60;;;;;;5053530;28;20060;-73
2022/10/13 04:50:09;;;;;;;34.72;26.13;;;10.70;93.40;;;;;;5037032;28;20076;-73
2022/10/13 04:52:35;;;;;;;34.75;25.08;;;10.70;93.40;;;;;;5053847;28;20045;-73
2022/10/13 04:55:01;;;;;;;46.50;29.15;;;10.70;93.00;;;;;;5052125;28;20068;-72
2022/10/13 04:57:27;;;;;;;37.35;28.25;;;10.70;93.00;;;;;;5051559;28;20063;-74
2022/10/13 04:59:53;;;;;;;46.28;30.27;;;10.70;92.90;;;;;;5036123;28;20116;-74
2022/10/13 05:02:18;;;;;;;49.05;30.02;;;10.70;93.70;;;;;;5036353;28;20547;-74
2022/10/13 05:04:44;;;;;;;45.63;29.58;;;10.70;93.30;;;;;;5052443;28;20036;-74
2022/10/13 05:07:10;;;;;;;42.63;29.40;;;10.70;94.00;;;;;;5035316;28;20036;-74
2022/10/13 05:09:36;;;;;;;42.38;30.33;;;10.70;94.00;;;;;;5018620;28;20037;-74
2022/10/13 05:12:02;;;;;;;45.50;29.05;;;10.70;93.70;;;;;;5064654;28;20075;-75
2022/10/13 05:14:27;;;;;;;42.40;27.58;;;10.70;93.70;;;;;;5072714;28;20040;-73
2022/10/13 05:16:53;;;;;;;48.92;30.60;;;10.70;93.60;;;;;;5056066;28;20044;-75
2022/10/13 05:19:19;;;;;;;48.58;29.70;;;10.70;93.70;;;;;;5056263;28;20040;-75
2022/10/13 05:21:44;;;;;;;37.78;24.75;;;10.70;93.50;;;;;;5072649;28;20119;-75
2022/10/13 05:24:12;;;;;;;44.33;29.48;;;10.70;93.50;;;;;;5072776;28;20093;-75
2022/10/13 05:26:39;;;;;;;49.70;32.47;;;10.70;93.60;;;;;;5072566;28;20048;-74
2022/10/13 05:29:05;;;;;;;49.20;30.92;;;10.70;93.80;;;;;;5072068;28;20098;-75
2022/10/13 05:31:33;;;;;;;46.40;31.35;;;10.70;94.20;;;;;;5055839;28;20404;-74
2022/10/13 05:33:59;;;;;;;53.88;33.38;;;10.80;94.30;;;;;;5055604;28;20511;-75
2022/10/13 05:36:29;;;;;;;43.03;29.30;;;10.80;94.10;;;;;;5055715;28;20064;-75
2022/10/13 05:39:09;;;;;;;43.13;31.13;;;10.80;94.00;;;;;;5072342;28;20044;-72
2022/10/13 05:41:34;;;;;;;43.40;29.63;;;10.80;94.50;;;;;;5072347;28;20068;-74
2022/10/13 05:44:02;;;;;;;48.20;30.17;;;10.70;94.10;;;;;;5055981;28;20044;-74
2022/10/13 05:46:28;;;;;;;52.38;32.25;;;10.80;94.20;;;;;;5052131;28;20045;-72
2022/10/13 05:48:54;;;;;;;52.50;30.70;;;10.80;94.40;;;;;;5051492;28;20505;-73
2022/10/13 05:51:24;;;;;;;51.85;31.83;;;10.80;95.00;;;;;;5035591;28;20047;-75
2022/10/13 05:54:04;;;;;;;51.22;30.92;;;10.80;94.70;;;;;;5040199;28;20045;-75
2022/10/13 05:56:35;;;;;;;51.53;32.80;;;10.80;94.80;;;;;;5054273;28;20048;-75
2022/10/13 05:59:04;;;;;;;51.33;32.50;;;10.80;94.80;;;;;;5039729;28;20056;-74
2022/10/13 06:01:33;;;;;;;48.63;34.13;;;10.80;94.80;;;;;;5052391;28;20045;-75
2022/10/13 06:04:03;;;;;;;49.15;35.50;;;10.90;94.90;;;;;;5055452;28;20053;-75
2022/10/13 06:06:29;;;;;;;50.05;34.25;;;10.90;94.90;;;;;;5055282;28;20056;-76
2022/10/13 06:08:55;;;;;;;42.95;30.45;;;10.90;94.50;;;;;;5058869;28;20051;-75
2022/10/13 06:11:20;;;;;;;46.83;33.15;;;10.90;94.70;;;;;;5041875;28;20041;-75
2022/10/13 06:13:46;;;;;;;40.65;28.08;;;10.90;94.40;;;;;;5028263;28;20127;-76
2022/10/13 06:16:12;;;;;;;55.17;34.85;;;11.00;94.60;;;;;;5054600;28;20036;-74
2022/10/13 06:18:37;;;;;;;54.05;35.05;;;11.00;94.70;;;;;;5051180;28;20040;-77
2022/10/13 06:21:03;;;;;;;34.22;26.02;;;11.00;94.70;;;;;;5038030;28;20049;-77
2022/10/13 06:23:29;;;;;;;51.75;34.35;;;11.00;94.20;;;;;;5058839;28;20185;-77
2022/10/13 06:25:55;;;;;;;54.58;35.15;;;11.00;95.10;;;;;;5051326;28;20097;-75
2022/10/13 06:28:21;;;;;;;58.85;36.83;;;11.00;95.40;;;;;;5038549;28;20037;-75
2022/10/13 06:30:52;;;;;;;49.58;32.90;;;11.00;95.40;;;;;;5053829;28;20048;-73
2022/10/13 06:33:19;;;;;;;52.25;34.15;;;11.00;95.40;;;;;;5039294;28;20532;-75
2022/10/13 06:35:45;;;;;;;48.00;31.85;;;11.00;95.50;;;;;;5036864;28;20033;-75
2022/10/13 06:38:11;;;;;;;51.80;34.35;;;11.00;95.80;;;;;;5017783;28;20067;-77
2022/10/13 06:40:37;;;;;;;57.53;36.72;;;11.00;95.40;;;;;;5052142;28;20052;-75
2022/10/13 06:43:02;;;;;;;57.42;38.08;;;11.10;95.50;;;;;;5057623;28;20051;-75
2022/10/13 06:45:28;;;;;;;55.88;35.60;;;11.10;95.30;;;;;;5058364;28;20059;-73
2022/10/13 06:47:54;;;;;;;53.00;34.83;;;11.10;95.50;;;;;;5057400;28;20180;-74
2022/10/13 06:50:21;;;;;;;49.63;33.55;;;11.10;95.60;;;;;;5060948;28;20053;-77
2022/10/13 06:52:47;;;;;;;53.45;34.35;;;11.20;95.70;;;;;;5060168;28;20370;-74
2022/10/13 06:55:13;;;;;;;58.85;36.13;;;11.30;95.80;;;;;;5056640;28;20055;-75
2022/10/13 06:57:38;;;;;;;67.57;39.15;;;11.30;96.20;;;;;;5060790;28;20048;-74
2022/10/13 07:00:05;;;;;;;57.40;36.63;;;11.30;96.40;;;;;;5059367;28;20158;-75
2022/10/13 07:02:31;;;;;;;51.20;35.63;;;11.40;95.50;;;;;;5063645;28;20087;-75
2022/10/13 07:04:57;;;;;;;53.08;36.33;;;11.40;95.70;;;;;;5042839;28;20085;-76
2022/10/13 07:07:23;;;;;;;56.63;36.83;;;11.40;95.30;;;;;;5056377;28;20163;-74
2022/10/13 07:09:49;;;;;;;48.13;32.80;;;11.50;96.30;;;;;;5039173;28;20466;-74
2022/10/13 07:12:15;;;;;;;59.33;35.85;;;11.50;96.10;;;;;;5043865;28;20036;-74
2022/10/13 07:14:41;;;;;;;51.50;33.00;;;11.50;96.40;;;;;;5039223;28;20131;-76
2022/10/13 07:17:06;;;;;;;61.28;37.22;;;11.60;96.60;;;;;;5055969;28;20155;-76
2022/10/13 07:19:32;;;;;;;61.72;39.08;;;11.60;96.60;;;;;;5056921;28;20045;-75
2022/10/13 07:21:58;;;;;;;55.88;35.67;;;11.60;96.60;;;;;;5033423;28;20060;-72
2022/10/13 07:24:24;;;;;;;63.42;38.30;;;11.70;96.30;;;;;;5060000;28;20413;-75
2022/10/13 07:26:50;;;;;;;65.75;39.47;;;11.70;96.40;;;;;;5038563;28;20049;-74
2022/10/13 07:29:16;;;;;;;61.97;37.95;;;11.80;96.90;;;;;;5039860;28;20044;-73
2022/10/13 07:31:43;;;;;;;60.60;36.05;;;11.80;97.00;;;;;;5058345;28;20396;-75
2022/10/13 07:34:09;;;;;;;62.63;38.25;;;11.80;97.00;;;;;;5068926;28;20343;-76
2022/10/13 07:36:34;;;;;;;67.10;38.58;;;11.90;96.90;;;;;;5074779;28;20043;-75
2022/10/13 07:39:03;;;;;;;60.67;38.85;;;11.90;96.70;;;;;;5058020;28;20044;-75
2022/10/13 07:41:29;;;;;;;73.93;42.85;;;11.90;96.50;;;;;;5074648;28;20043;-77
2022/10/13 07:43:55;;;;;;;70.63;41.35;;;11.90;96.70;;;;;;5074862;28;20048;-77
2022/10/13 07:46:21;;;;;;;74.25;42.30;;;12.00;96.90;;;;;;5074811;28;20037;-73
2022/10/13 07:48:47;;;;;;;70.82;42.47;;;12.00;97.00;;;;;;5057544;28;20057;-76
2022/10/13 07:51:13;;;;;;;71.13;42.63;;;12.00;97.10;;;;;;5073967;28;20044;-75
2022/10/13 07:53:41;;;;;;;54.40;35.63;;;12.00;97.20;;;;;;5074659;28;20033;-75
2022/10/13 07:56:09;;;;;;;62.33;39.55;;;12.10;96.90;;;;;;5074354;28;20485;-73
2022/10/13 07:58:40;;;;;;;71.78;39.90;;;12.10;97.10;;;;;;5058035;28;20503;-73
2022/10/13 08:01:07;;;;;;;71.60;44.83;;;12.20;97.10;;;;;;5075196;28;20037;-72
2022/10/13 08:03:33;;;;;;;60.85;40.00;;;12.20;97.30;;;;;;5077394;28;20059;-75
2022/10/13 08:06:00;;;;;;;72.28;42.22;;;12.20;97.00;;;;;;5074562;28;20548;-74
2022/10/13 08:08:26;;;;;;;76.47;43.60;;;12.30;97.50;;;;;;5057745;28;20032;-76
2022/10/13 08:10:52;;;;;;;71.30;44.25;;;12.40;97.20;;;;;;5074050;28;20040;-73
2022/10/13 08:13:18;;;;;;;66.65;41.05;;;12.40;97.50;;;;;;5074013;28;20049;-76
2022/10/13 08:15:45;;;;;;;72.63;42.05;;;12.40;97.20;;;;;;5074051;28;20040;-74
2022/10/13 08:18:13;;;;;;;66.50;43.47;;;12.40;96.60;;;;;;5074155;28;20245;-73
2022/10/13 08:20:40;;;;;;;77.35;43.38;;;12.50;97.40;;;;;;5073908;28;20040;-75
2022/10/13 08:23:06;;;;;;;67.93;40.35;;;12.60;97.60;;;;;;5074124;28;20396;-75
2022/10/13 08:25:37;;;;;;;68.35;41.85;;;12.60;96.90;;;;;;5057358;28;20045;-74
2022/10/13 08:28:04;;;;;;;63.65;40.28;;;12.60;96.60;;;;;;5057328;28;20087;-74
2022/10/13 08:30:29;;;;;;;75.40;42.65;;;12.70;96.70;;;;;;5057005;28;20036;-74
2022/10/13 08:32:55;;;;;;;58.45;38.38;;;12.80;96.80;;;;;;5057027;28;20446;-73
2022/10/13 08:35:21;;;;;;;58.83;36.30;;;12.80;96.40;;;;;;5057128;28;20042;-74
2022/10/13 08:37:46;;;;;;;64.82;38.00;;;12.90;96.40;;;;;;5073906;28;20392;-73
2022/10/13 08:40:16;;;;;;;60.35;38.00;;;13.00;96.70;;;;;;5073533;28;20409;-74
2022/10/13 08:42:43;;;;;;;57.17;36.92;;;13.00;96.50;;;;;;5056804;28;20097;-72
2022/10/13 08:45:35;;;;;;;49.67;33.72;;;13.00;96.30;;;;;;5057070;28;20040;-74
2022/10/13 08:48:08;;;;;;;54.58;34.72;;;13.10;96.60;;;;;;5070257;28;20083;-73
2022/10/13 08:50:40;;;;;;;56.22;36.85;;;13.10;96.70;;;;;;5073340;28;20087;-75
2022/10/13 08:53:34;;;;;;;52.10;32.08;;;13.20;96.20;;;;;;5073290;28;20044;-74
2022/10/13 08:56:09;;;;;;;52.88;35.35;;;13.20;96.40;;;;;;5069188;28;20135;-76
2022/10/13 08:58:37;;;;;;;46.97;32.67;;;13.20;96.30;;;;;;5073193;28;20036;-74
2022/10/13 09:01:09;;;;;;;45.03;30.85;;;13.30;96.90;;;;;;5073309;28;20102;-77
2022/10/13 09:03:49;;;;;;;50.45;31.30;;;13.30;96.50;;;;;;5055852;28;20393;-74
2022/10/13 09:06:27;;;;;;;50.60;32.50;;;13.40;96.60;;;;;;5056374;28;20032;-73
2022/10/13 09:09:05;;;;;;;52.67;34.15;;;13.40;96.60;;;;;;5073141;28;20040;-74
2022/10/13 09:11:43;;;;;;;53.67;33.72;;;13.40;96.40;;;;;;5073180;28;20098;-75
2022/10/13 09:14:17;;;;;;;45.75;30.85;;;13.40;96.80;;;;;;5072856;28;20051;-75
2022/10/13 09:16:44;;;;;;;47.55;32.38;;;13.50;96.60;;;;;;5073038;28;20393;-76
2022/10/13 09:19:17;;;;;;;56.60;34.78;;;13.50;96.60;;;;;;5072668;28;20040;-76
2022/10/13 09:21:43;;;;;;;49.85;33.10;;;13.50;96.70;;;;;;5073029;28;20128;-75
2022/10/13 09:24:18;;;;;;;49.45;33.78;;;13.50;96.60;;;;;;5072559;28;20497;-75
2022/10/13 09:26:45;;;;;;;41.92;29.75;;;13.50;96.70;;;;;;5072826;28;20432;-77
2022/10/13 09:29:18;;;;;;;51.58;33.10;;;13.50;96.30;;;;;;5072715;28;20107;-77
2022/10/13 09:31:44;;;;;;;44.40;30.27;;;13.50;96.20;;;;;;5072764;28;20140;-76
2022/10/13 09:34:19;;;;;;;48.53;33.17;;;13.60;96.20;;;;;;5072666;28;20041;-75
2022/10/13 09:36:59;;;;;;;46.50;32.20;;;13.60;96.30;;;;;;5055744;28;20124;-75
2022/10/13 09:39:25;;;;;;;54.25;35.75;;;13.50;96.10;;;;;;5072349;28;20485;-75
2022/10/13 09:41:52;;;;;;;45.40;31.95;;;13.50;96.40;;;;;;5072284;28;20044;-75
2022/10/13 09:44:27;;;;;;;55.95;35.92;;;13.50;96.30;;;;;;5072360;28;20047;-76
2022/10/13 09:46:59;;;;;;;50.90;34.90;;;13.60;96.60;;;;;;5072467;28;20127;-75
2022/10/13 09:49:38;;;;;;;55.78;36.22;;;13.60;96.70;;;;;;5071943;28;20044;-73
2022/10/13 09:52:20;;;;;;;55.97;37.28;;;13.60;96.70;;;;;;5057388;28;20048;-75
2022/10/13 09:54:51;;;;;;;52.72;31.30;;;13.60;97.00;;;;;;5071910;28;20052;-74
2022/10/13 09:57:36;;;;;;;51.83;33.97;;;13.60;96.50;;;;;;5055444;28;20040;-76
2022/10/13 10:00:22;;;;;;;56.25;35.88;;;13.70;96.40;;;;;;5072358;28;20514;-77
2022/10/13 10:03:24;;;;;;;54.38;36.90;;;13.80;96.50;;;;;;5072212;28;20434;-76
2022/10/13 10:05:54;;;;;;;46.92;32.50;;;13.80;96.50;;;;;;5071875;28;20529;-77
2022/10/13 10:08:22;;;;;;;45.33;30.02;;;13.80;96.30;;;;;;5071948;28;20056;-75
2022/10/13 10:10:48;;;;;;;45.25;31.25;;;13.90;96.20;;;;;;5071762;28;20132;-73
2022/10/13 10:13:14;;;;;;;39.88;27.88;;;13.90;96.20;;;;;;5071683;28;20072;-76
2022/10/13 10:15:43;;;;;;;39.95;29.15;;;14.00;96.20;;;;;;5071613;28;20052;-76
2022/10/13 10:18:24;;;;;;;48.40;32.78;;;14.00;96.10;;;;;;5055117;28;20071;-77
2022/10/13 10:21:06;;;;;;;43.65;31.17;;;14.00;96.30;;;;;;5071776;28;20040;-75
2022/10/13 10:23:38;;;;;;;41.55;29.00;;;14.00;96.10;;;;;;5067475;28;20037;-75
2022/10/13 10:26:09;;;;;;;37.78;27.27;;;14.10;96.10;;;;;;5071588;28;20101;-75
2022/10/13 10:28:46;;;;;;;34.50;25.92;;;14.10;96.40;;;;;;5071700;28;20036;-74
2022/10/13 10:31:35;;;;;;;34.22;26.58;;;14.20;96.10;;;;;;5055054;28;20046;-77
2022/10/13 10:34:33;;;;;;;34.30;24.33;;;14.20;96.00;;;;;;5071593;28;20040;-77
2022/10/13 10:37:16;;;;;;;32.60;22.35;;;14.20;95.90;;;;;;5071842;28;20033;-74
2022/10/13 10:39:51;;;;;;;33.05;23.13;;;14.20;95.90;;;;;;5071615;28;20048;-76
2022/10/13 10:42:38;;;;;;;32.65;25.02;;;14.30;95.90;;;;;;5071586;28;20040;-75
2022/10/13 10:45:20;;;;;;;33.92;23.00;;;14.30;95.80;;;;;;5054976;28;20047;-77
2022/10/13 10:47:54;;;;;;;34.63;23.85;;;14.30;95.80;;;;;;5071608;28;20056;-77
2022/10/13 10:50:20;;;;;;;27.63;20.67;;;14.30;95.70;;;;;;5071415;28;20109;-75
2022/10/13 10:53:15;;;;;;;25.85;19.35;;;14.30;95.70;;;;;;5071675;28;20045;-76
2022/10/13 10:56:04;;;;;;;21.63;15.90;;;14.40;95.50;;;;;;5066748;28;20527;-76
2022/10/13 10:58:44;;;;;;;26.55;20.55;;;14.40;95.50;;;;;;5071442;28;20051;-75
2022/10/13 11:01:24;;;;;;;27.33;20.17;;;14.40;95.30;;;;;;5071445;28;20048;-75
2022/10/13 11:04:11;;;;;;;25.88;18.42;;;14.40;95.20;;;;;;5071388;28;20037;-78
2022/10/13 11:06:37;;;;;;;25.98;18.75;;;14.50;95.20;;;;;;5071295;28;20069;-76
2022/10/13 11:09:04;;;;;;;30.73;20.55;;;14.50;95.10;;;;;;5071428;28;20424;-74
2022/10/13 11:11:41;;;;;;;26.25;19.10;;;14.50;95.20;;;;;;5071307;28;20481;-77
2022/10/13 11:14:06;;;;;;;23.27;18.10;;;14.60;95.00;;;;;;5054552;28;20049;-74
2022/10/13 11:16:36;;;;;;;19.08;14.50;;;14.60;95.00;;;;;;5071797;28;20032;-77
2022/10/13 11:19:23;;;;;;;22.35;14.63;;;14.60;95.00;;;;;;5072544;28;20037;-73
2022/10/13 11:21:52;;;;;;;14.45;10.40;;;14.70;94.90;;;;;;5074362;28;20119;-74
2022/10/13 11:24:37;;;;;;;15.15;11.32;;;14.80;94.80;;;;;;5054945;28;20090;-78
2022/10/13 11:27:15;;;;;;;16.40;8.85;;;14.80;94.60;;;;;;5056507;28;20040;-76
2022/10/13 11:29:45;;;;;;;13.80;7.50;;;14.80;94.30;;;;;;5075240;28;20495;-73
2022/10/13 11:32:40;;;;;;;11.10;3.97;;;14.80;94.20;;;;;;5075016;28;20049;-74
2022/10/13 11:35:05;;;;;;;7.38;3.33;;;14.80;94.10;;;;;;5075022;28;20043;-75
2022/10/13 11:37:53;;;;;;;6.03;3.10;;;14.80;93.60;;;;;;5058061;28;20044;-73
2022/10/13 11:40:55;;;;;;;9.23;2.53;;;14.80;93.00;;;;;;5057963;28;20072;-75
2022/10/13 11:43:45;;;;;;;5.00;2.70;;;14.80;92.60;;;;;;5074908;28;20388;-75
2022/10/13 11:46:13;;;;;;;8.02;3.30;;;14.80;91.90;;;;;;5074606;28;20117;-75
2022/10/13 11:48:57;;;;;;;5.60;2.85;;;14.90;91.60;;;;;;5074353;28;20135;-74
2022/10/13 11:52:05;;;;;;;7.13;2.60;;;14.90;91.70;;;;;;5074503;28;20040;-75
2022/10/13 11:55:13;;;;;;;4.07;2.72;;;15.00;91.80;;;;;;5057640;28;20503;-78
2022/10/13 11:57:39;;;;;;;10.40;3.17;;;15.00;91.50;;;;;;5045904;28;20052;-76
2022/10/13 12:00:13;;;;;;;9.07;3.05;;;15.00;91.70;;;;;;5074346;28;20404;-76
2022/10/13 12:02:50;;;;;;;6.10;2.90;;;15.00;91.80;;;;;;5057556;28;20537;-75
2022/10/13 12:05:26;;;;;;;9.85;3.28;;;15.00;91.90;;;;;;5074436;28;20076;-77
2022/10/13 12:07:55;;;;;;;7.97;3.58;;;15.00;91.80;;;;;;5074164;28;20082;-74
2022/10/13 12:10:34;;;;;;;7.40;3.13;;;15.00;91.70;;;;;;5074013;28;20076;-74
2022/10/13 12:13:03;;;;;;;8.48;2.85;;;15.00;91.70;;;;;;5074365;28;20075;-74
2022/10/13 12:15:30;;;;;;;6.47;3.58;;;14.90;91.50;;;;;;5073969;28;20046;-76
2022/10/13 12:17:59;;;;;;;7.53;3.10;;;14.90;91.50;;;;;;5074313;28;20449;-76
2022/10/13 12:20:32;;;;;;;11.02;3.55;;;15.00;91.40;;;;;;5057308;28;20047;-76
2022/10/13 12:22:58;;;;;;;6.88;3.50;;;14.90;91.40;;;;;;5074236;28;20367;-77
2022/10/13 12:25:27;;;;;;;7.18;3.42;;;15.00;91.40;;;;;;5073726;28;20074;-74
2022/10/13 12:27:57;;;;;;;8.20;3.33;;;15.00;91.30;;;;;;5073857;28;20119;-75
2022/10/13 12:30:29;;;;;;;10.50;3.00;;;15.00;91.30;;;;;;5073675;28;20036;-74
2022/10/13 12:32:57;;;;;;;9.73;3.65;;;15.00;91.40;;;;;;5073967;28;20084;-76
2022/10/13 12:35:32;;;;;;;8.25;3.25;;;15.00;91.40;;;;;;5073787;28;20047;-76
2022/10/13 12:38:02;;;;;;;9.57;3.90;;;15.00;91.70;;;;;;5072681;28;20451;-78
2022/10/13 12:40:28;;;;;;;7.50;2.53;;;15.00;91.50;;;;;;5057132;28;20396;-79
2022/10/13 12:42:57;;;;;;;10.00;3.83;;;15.00;91.30;;;;;;5073674;28;20051;-77
2022/10/13 12:45:30;;;;;;;10.63;3.17;;;15.00;91.30;;;;;;5056784;28;20123;-76
2022/10/13 12:47:55;;;;;;;9.20;4.13;;;15.10;91.40;;;;;;5073342;28;20099;-76